Time;durP1;ratioP1;P1;durP2;ratioP2;P2;SDS_P1;SDS_P2;PMS_P1;PMS_P2;Temp;Humidity;BMP_temperature;BMP_pressure;BME280_temperature;BME280_humidity;BME280_pressure;Samples;Min_cycle;Max_cycle;Signal;HPM_P1;HPM_P2
2024/01/25 00:00:44;;;;;;;14.55;2.10;;;;;;;-141.50;100.00;63355.56;5013042;28;20037;-77
2024/01/25 00:03:11;;;;;;;20.10;2.55;;;;;;;-141.50;100.00;63355.56;4945601;28;20056;-77
2024/01/25 00:05:38;;;;;;;19.30;2.17;;;;;;;-141.50;100.00;63355.56;4964057;28;20100;-77
2024/01/25 00:08:05;;;;;;;15.70;1.77;;;;;;;-141.50;100.00;63355.56;5007522;28;20056;-78
2024/01/25 00:10:32;;;;;;;13.77;1.77;;;;;;;-141.50;100.00;63355.56;4977136;28;20528;-78
2024/01/25 00:12:59;;;;;;;17.88;2.03;;;;;;;-141.50;100.00;63355.56;4974141;28;20051;-78
2024/01/25 00:15:25;;;;;;;17.60;2.22;;;;;;;-141.50;100.00;63355.56;4961367;28;20516;-78
2024/01/25 00:17:52;;;;;;;15.40;2.25;;;;;;;-141.50;100.00;63355.56;4982544;28;20061;-78
2024/01/25 00:20:19;;;;;;;17.98;2.45;;;;;;;-141.50;100.00;63355.56;4953460;28;20060;-78
2024/01/25 00:22:46;;;;;;;18.20;2.42;;;;;;;-141.50;100.00;63355.56;4993983;28;20086;-78
2024/01/25 00:25:12;;;;;;;10.27;1.70;;;;;;;-141.50;100.00;63355.56;5030162;28;20119;-78
2024/01/25 00:27:39;;;;;;;10.80;2.00;;;;;;;-141.50;100.00;63355.56;4980176;28;20073;-78
2024/01/25 00:30:07;;;;;;;20.23;2.20;;;;;;;-141.50;100.00;63355.56;4962486;28;20059;-78
2024/01/25 00:32:33;;;;;;;13.65;2.55;;;;;;;-141.50;100.00;63355.56;4972858;28;20462;-77
2024/01/25 00:35:00;;;;;;;13.27;2.40;;;;;;;-141.50;100.00;63355.56;4986299;28;20143;-76
2024/01/25 00:37:27;;;;;;;18.88;3.33;;;;;;;-141.50;100.00;63355.56;5010388;28;20049;-76
2024/01/25 00:39:54;;;;;;;15.15;2.28;;;;;;;-141.50;100.00;63355.56;4968722;28;20417;-77
2024/01/25 00:42:23;;;;;;;13.45;2.38;;;;;;;-141.50;100.00;63355.56;4982885;28;20068;-77
2024/01/25 00:44:50;;;;;;;20.75;2.50;;;;;;;-141.50;100.00;63355.56;5037101;28;20101;-78
2024/01/25 00:47:17;;;;;;;19.02;2.78;;;;;;;-141.50;100.00;63355.56;5039650;28;20096;-77
2024/01/25 00:49:44;;;;;;;14.45;2.45;;;;;;;-141.50;100.00;63355.56;4984108;28;20104;-77
2024/01/25 00:52:11;;;;;;;17.52;2.38;;;;;;;-141.50;100.00;63355.56;4958815;28;20059;-77
2024/01/25 00:54:38;;;;;;;18.55;2.50;;;;;;;-141.50;100.00;63355.56;4955673;28;20050;-77
2024/01/25 00:57:05;;;;;;;13.52;2.70;;;;;;;-141.50;100.00;63355.56;5004001;28;20139;-77
2024/01/25 00:59:32;;;;;;;20.73;2.70;;;;;;;-141.50;100.00;63355.56;5006884;28;20590;-77
2024/01/25 01:02:05;;;;;;;16.38;2.70;;;;;;;-141.50;100.00;63355.56;5000643;28;20062;-78
2024/01/25 01:04:35;;;;;;;26.95;2.70;;;;;;;-141.50;100.00;63355.56;5031389;28;20041;-77
2024/01/25 01:07:14;;;;;;;16.38;2.20;;;;;;;-141.50;100.00;63355.56;4973327;28;20057;-78
2024/01/25 01:09:42;;;;;;;17.65;2.47;;;;;;;-141.50;100.00;63355.56;4995745;28;20063;-77
2024/01/25 01:12:08;;;;;;;12.32;2.10;;;;;;;-141.50;100.00;63355.56;5038255;28;20085;-78
2024/01/25 01:14:35;;;;;;;14.38;2.70;;;;;;;-141.50;100.00;63355.56;4975508;28;20047;-77
2024/01/25 01:17:02;;;;;;;22.15;2.38;;;;;;;-141.50;100.00;63355.56;4957063;28;20082;-78
2024/01/25 01:19:28;;;;;;;17.30;2.47;;;;;;;-141.50;100.00;63355.56;4968027;28;20066;-76
2024/01/25 01:21:55;;;;;;;19.00;2.90;;;;;;;-141.50;100.00;63355.56;5031007;28;20514;-77
2024/01/25 01:24:22;;;;;;;25.13;3.35;;;;;;;-141.50;100.00;63355.56;4998491;28;20071;-76
2024/01/25 01:26:50;;;;;;;13.35;2.03;;;;;;;-141.50;100.00;63355.56;5004980;28;20077;-76
2024/01/25 01:29:18;;;;;;;13.20;2.30;;;;;;;-141.50;100.00;63355.56;4967326;28;20059;-77
2024/01/25 01:31:45;;;;;;;14.75;2.08;;;;;;;-141.50;100.00;63355.56;4975078;28;20050;-78
2024/01/25 01:34:14;;;;;;;11.48;2.38;;;;;;;-141.50;100.00;63355.56;4976701;28;20402;-77
2024/01/25 01:36:41;;;;;;;18.90;2.33;;;;;;;-141.50;100.00;63355.56;4986566;28;20047;-78
2024/01/25 01:39:08;;;;;;;18.10;3.13;;;;;;;-141.50;100.00;63355.56;4984204;28;20085;-78
2024/01/25 01:41:35;;;;;;;16.85;2.95;;;;;;;-141.50;100.00;63355.56;4976450;28;20055;-77
2024/01/25 01:44:02;;;;;;;16.08;2.42;;;;;;;-141.50;100.00;63355.56;5044921;28;20045;-78
2024/01/25 01:46:39;;;;;;;14.60;2.22;;;;;;;-141.50;100.00;63355.56;4978287;28;20050;-77
2024/01/25 01:49:08;;;;;;;17.15;2.70;;;;;;;-141.50;100.00;63355.56;5005103;28;20049;-77
2024/01/25 01:51:35;;;;;;;14.05;2.28;;;;;;;-141.50;100.00;63355.56;4965678;28;20051;-77
2024/01/25 01:54:03;;;;;;;20.25;2.63;;;;;;;-141.50;100.00;63355.56;4951378;28;20071;-77
2024/01/25 01:56:30;;;;;;;21.13;2.47;;;;;;;-141.50;100.00;63355.56;4966577;28;20077;-76
2024/01/25 01:59:05;;;;;;;16.17;2.33;;;;;;;-141.50;100.00;63355.56;5001586;28;20072;-78
2024/01/25 02:01:32;;;;;;;14.05;2.40;;;;;;;-141.50;100.00;63355.56;4953084;28;20043;-77
2024/01/25 02:04:00;;;;;;;17.95;2.78;;;;;;;-141.50;100.00;63355.56;5024375;28;20045;-78
2024/01/25 02:06:27;;;;;;;21.27;2.05;;;;;;;-141.50;100.00;63355.56;5008209;28;20057;-77
2024/01/25 02:08:58;;;;;;;20.13;2.40;;;;;;;-141.50;100.00;63355.56;5044055;28;20045;-77
2024/01/25 02:11:25;;;;;;;17.33;2.55;;;;;;;-141.50;100.00;63355.56;5027627;28;20116;-76
2024/01/25 02:13:52;;;;;;;14.93;2.40;;;;;;;-141.50;100.00;63355.56;4953772;28;20051;-77
2024/01/25 02:16:19;;;;;;;13.95;1.83;;;;;;;-141.50;100.00;63355.56;4980284;28;20111;-78
2024/01/25 02:18:47;;;;;;;15.00;2.00;;;;;;;-141.50;100.00;63355.56;5060980;28;20108;-77
2024/01/25 02:21:15;;;;;;;14.48;2.88;;;;;;;-141.50;100.00;63355.56;4960769;28;20086;-77
2024/01/25 02:23:42;;;;;;;15.75;2.35;;;;;;;-141.50;100.00;63355.56;4958261;28;20039;-77
2024/01/25 02:26:09;;;;;;;15.10;3.05;;;;;;;-141.50;100.00;63355.56;4950710;28;20058;-76
2024/01/25 02:28:35;;;;;;;12.45;2.30;;;;;;;-141.50;100.00;63355.56;4964506;28;20057;-78
2024/01/25 02:31:02;;;;;;;15.80;2.33;;;;;;;-141.50;100.00;63355.56;4999120;28;20494;-78
2024/01/25 02:33:30;;;;;;;18.80;2.50;;;;;;;-141.50;100.00;63355.56;4972452;28;20050;-78
2024/01/25 02:35:57;;;;;;;15.32;2.55;;;;;;;-141.50;100.00;63355.56;4994469;28;20389;-78
2024/01/25 02:38:24;;;;;;;17.83;2.75;;;;;;;-141.50;100.00;63355.56;4962723;28;20055;-76
2024/01/25 02:40:53;;;;;;;15.73;2.25;;;;;;;-141.50;100.00;63355.56;4956810;28;20406;-78
2024/01/25 02:43:20;;;;;;;18.48;2.63;;;;;;;-141.50;100.00;63355.56;4980743;28;20059;-77
2024/01/25 02:45:48;;;;;;;17.67;2.63;;;;;;;-141.50;100.00;63355.56;5046140;28;20054;-78
2024/01/25 02:48:15;;;;;;;15.30;2.22;;;;;;;-141.50;100.00;63355.56;4988633;28;20130;-78
2024/01/25 02:50:42;;;;;;;20.38;2.72;;;;;;;-141.50;100.00;63355.56;4949649;28;20417;-78
2024/01/25 02:53:09;;;;;;;20.70;2.33;;;;;;;-141.50;100.00;63355.56;4955312;28;20120;-78
2024/01/25 02:55:35;;;;;;;16.08;2.80;;;;;;;-141.50;100.00;63355.56;4999078;28;20101;-78
2024/01/25 02:58:02;;;;;;;21.15;3.60;;;;;;;-141.50;100.00;63355.56;4952747;28;20047;-78
2024/01/25 03:00:29;;;;;;;22.50;3.08;;;;;;;-141.50;100.00;63355.56;4955675;28;20057;-78
2024/01/25 03:02:56;;;;;;;13.35;2.75;;;;;;;-141.50;100.00;63355.56;4998278;28;20471;-79
2024/01/25 03:05:22;;;;;;;19.13;3.17;;;;;;;-141.50;100.00;63355.56;4953221;28;20514;-78
2024/01/25 03:07:49;;;;;;;23.23;3.10;;;;;;;-141.50;100.00;63355.56;4969090;28;20055;-78
2024/01/25 03:10:16;;;;;;;12.98;2.85;;;;;;;-141.50;100.00;63355.56;5033901;28;20055;-78
2024/01/25 03:12:43;;;;;;;22.63;2.88;;;;;;;-141.50;100.00;63355.56;4954260;28;20047;-78
2024/01/25 03:15:11;;;;;;;18.70;2.47;;;;;;;-141.50;100.00;63355.56;4959964;28;20049;-78
2024/01/25 03:17:38;;;;;;;15.40;2.60;;;;;;;-141.50;100.00;63355.56;4962692;28;20040;-77
2024/01/25 03:20:05;;;;;;;15.57;2.80;;;;;;;-141.50;100.00;63355.56;4998700;28;20064;-78
2024/01/25 03:22:32;;;;;;;24.75;3.42;;;;;;;-141.50;100.00;63355.56;4951199;28;20051;-78
2024/01/25 03:24:59;;;;;;;24.90;3.10;;;;;;;-141.50;100.00;63355.56;4963087;28;20504;-79
2024/01/25 03:27:26;;;;;;;18.65;2.35;;;;;;;-141.50;100.00;63355.56;4994547;28;20058;-78
2024/01/25 03:29:53;;;;;;;14.85;2.88;;;;;;;-141.50;100.00;63355.56;4959822;28;20089;-77
2024/01/25 03:32:19;;;;;;;17.27;3.60;;;;;;;-141.50;100.00;63355.56;4973112;28;20461;-77
2024/01/25 03:34:46;;;;;;;24.25;2.92;;;;;;;-141.50;100.00;63355.56;4980141;28;20241;-77
2024/01/25 03:37:13;;;;;;;19.58;2.67;;;;;;;-141.50;100.00;63355.56;4960676;28;20047;-78
2024/01/25 03:39:40;;;;;;;19.20;2.80;;;;;;;-141.50;100.00;63355.56;4940981;28;20042;-77
2024/01/25 03:42:07;;;;;;;22.83;2.95;;;;;;;-141.50;100.00;63355.56;4950704;28;20059;-77
2024/01/25 03:44:34;;;;;;;19.10;2.97;;;;;;;-141.50;100.00;63355.56;4959490;28;20152;-77
2024/01/25 03:47:00;;;;;;;23.70;3.00;;;;;;;-141.50;100.00;63355.56;4961680;28;20361;-78
2024/01/25 03:49:27;;;;;;;16.48;2.63;;;;;;;-141.50;100.00;63355.56;4965665;28;20419;-78
2024/01/25 03:51:55;;;;;;;18.17;2.78;;;;;;;-141.50;100.00;63355.56;4978280;28;20642;-78
2024/01/25 03:54:22;;;;;;;18.70;2.85;;;;;;;-141.50;100.00;63355.56;4967964;28;20134;-77
2024/01/25 03:56:49;;;;;;;22.98;3.33;;;;;;;-141.50;100.00;63355.56;4989319;28;20127;-78
2024/01/25 03:59:17;;;;;;;29.65;3.42;;;;;;;-141.50;100.00;63355.56;5011756;28;20534;-78
2024/01/25 04:01:44;;;;;;;19.58;3.63;;;;;;;-141.50;100.00;63355.56;4984243;28;20416;-77
2024/01/25 04:04:12;;;;;;;20.75;2.55;;;;;;;-141.50;100.00;63355.56;4968311;28;20047;-77
2024/01/25 04:06:43;;;;;;;29.52;3.35;;;;;;;-141.50;100.00;63355.56;4998359;28;20046;-78
2024/01/25 04:09:11;;;;;;;22.85;3.28;;;;;;;-141.50;100.00;63355.56;4976646;28;20257;-78
2024/01/25 04:11:38;;;;;;;20.65;2.63;;;;;;;-141.50;100.00;63355.56;5027991;28;20459;-78
2024/01/25 04:14:07;;;;;;;21.63;3.35;;;;;;;-141.50;100.00;63355.56;4967346;28;20055;-78
2024/01/25 04:16:39;;;;;;;25.08;3.05;;;;;;;-141.50;100.00;63355.56;4968191;28;20050;-78
2024/01/25 04:19:06;;;;;;;23.95;3.28;;;;;;;-141.50;100.00;63355.56;4952246;28;20051;-78
2024/01/25 04:21:32;;;;;;;20.60;3.40;;;;;;;-141.50;100.00;63355.56;4993232;28;20036;-78
2024/01/25 04:23:59;;;;;;;23.77;3.47;;;;;;;-141.50;100.00;63355.56;4958213;28;20472;-77
2024/01/25 04:26:26;;;;;;;21.38;3.22;;;;;;;-141.50;100.00;63355.56;4964282;28;20054;-77
2024/01/25 04:28:52;;;;;;;27.17;3.05;;;;;;;-141.50;100.00;63355.56;5033978;28;20037;-78
2024/01/25 04:31:19;;;;;;;24.10;2.75;;;;;;;-141.50;100.00;63355.56;4963368;28;20085;-78
2024/01/25 04:33:46;;;;;;;21.48;3.63;;;;;;;-141.50;100.00;63355.56;4941201;28;20044;-78
2024/01/25 04:36:15;;;;;;;22.85;2.95;;;;;;;-141.50;100.00;63355.56;4993280;28;20110;-78
2024/01/25 04:38:42;;;;;;;15.52;2.58;;;;;;;-141.50;100.00;63355.56;5001969;28;20063;-77
2024/01/25 04:41:09;;;;;;;22.25;2.78;;;;;;;-141.50;100.00;63355.56;4959954;28;20038;-77
2024/01/25 04:43:36;;;;;;;29.48;3.45;;;;;;;-141.50;100.00;63355.56;5027179;28;20051;-78
2024/01/25 04:46:04;;;;;;;20.33;2.80;;;;;;;-141.50;100.00;63355.56;4965614;28;20550;-79
2024/01/25 04:48:30;;;;;;;25.02;3.35;;;;;;;-141.50;100.00;63355.56;4986007;28;20046;-79
2024/01/25 04:50:59;;;;;;;15.52;2.63;;;;;;;-141.50;100.00;63355.56;4963155;28;20045;-77
2024/01/25 04:53:25;;;;;;;20.60;3.25;;;;;;;-141.50;100.00;63355.56;4964663;28;20065;-78
2024/01/25 04:55:54;;;;;;;20.83;3.03;;;;;;;-141.50;100.00;63355.56;4964807;28;20130;-78
2024/01/25 04:58:21;;;;;;;21.38;3.53;;;;;;;-141.50;100.00;63355.56;4968382;28;20280;-78
2024/01/25 05:00:48;;;;;;;27.13;3.03;;;;;;;-141.50;100.00;63355.56;4989275;28;20072;-78
2024/01/25 05:03:14;;;;;;;27.42;3.35;;;;;;;-141.50;100.00;63355.56;4959892;28;20047;-78
2024/01/25 05:05:41;;;;;;;15.20;3.17;;;;;;;-141.50;100.00;63355.56;5003752;28;20046;-78
2024/01/25 05:08:08;;;;;;;30.70;3.20;;;;;;;-141.50;100.00;63355.56;4962094;28;20051;-78
2024/01/25 05:10:35;;;;;;;26.70;3.17;;;;;;;-141.50;100.00;63355.56;4969799;28;20096;-79
2024/01/25 05:13:02;;;;;;;20.58;2.80;;;;;;;-141.50;100.00;63355.56;4999691;28;20044;-79
2024/01/25 05:15:28;;;;;;;24.30;3.10;;;;;;;-141.50;100.00;63355.56;4958383;28;20130;-77
2024/01/25 05:17:55;;;;;;;23.23;3.45;;;;;;;-141.50;100.00;63355.56;4963419;28;20575;-77
2024/01/25 05:20:22;;;;;;;21.38;2.83;;;;;;;-141.50;100.00;63355.56;4958220;28;20051;-78
2024/01/25 05:22:49;;;;;;;23.75;2.88;;;;;;;-141.50;100.00;63355.56;4958245;28;20409;-77
2024/01/25 05:25:17;;;;;;;26.23;3.70;;;;;;;-141.50;100.00;63355.56;5019219;28;20053;-78
2024/01/25 05:27:43;;;;;;;24.75;2.80;;;;;;;-141.50;100.00;63355.56;4992738;28;20034;-78
2024/01/25 05:30:11;;;;;;;17.48;2.90;;;;;;;-141.50;100.00;63355.56;4975042;28;20119;-77
2024/01/25 05:32:37;;;;;;;23.17;3.08;;;;;;;-141.50;100.00;63355.56;4980083;28;20126;-77
2024/01/25 05:35:06;;;;;;;23.40;3.13;;;;;;;-141.50;100.00;63355.56;4977067;28;20047;-77
2024/01/25 05:37:33;;;;;;;22.08;2.65;;;;;;;-141.50;100.00;63355.56;4954814;28;20035;-78
2024/01/25 05:40:00;;;;;;;21.30;2.63;;;;;;;-141.50;100.00;63355.56;4947898;28;20051;-78
2024/01/25 05:42:27;;;;;;;29.48;3.33;;;;;;;-141.50;100.00;63355.56;4952474;28;20093;-77
2024/01/25 05:44:53;;;;;;;24.60;2.90;;;;;;;-141.50;100.00;63355.56;4955195;28;20051;-78
2024/01/25 05:47:20;;;;;;;25.63;3.35;;;;;;;-141.50;100.00;63355.56;4987654;28;20051;-77
2024/01/25 05:49:47;;;;;;;17.42;2.50;;;;;;;-141.50;100.00;63355.56;4984561;28;20036;-77
2024/01/25 05:52:15;;;;;;;23.48;3.30;;;;;;;-141.50;100.00;63355.56;4967466;28;20130;-77
2024/01/25 05:54:43;;;;;;;21.35;2.95;;;;;;;-141.50;100.00;63355.56;5011966;28;20053;-77
2024/01/25 05:57:10;;;;;;;22.98;3.15;;;;;;;-141.50;100.00;63355.56;4963989;28;20148;-77
2024/01/25 05:59:37;;;;;;;22.48;2.70;;;;;;;-141.50;100.00;63355.56;4966243;28;20151;-77
2024/01/25 06:02:05;;;;;;;21.65;2.35;;;;;;;-141.50;100.00;63355.56;4957742;28;20585;-77
2024/01/25 06:04:32;;;;;;;16.17;2.63;;;;;;;-141.50;100.00;63355.56;4958083;28;20081;-77
2024/01/25 06:06:59;;;;;;;14.63;2.83;;;;;;;-141.50;100.00;63355.56;4973742;28;20333;-77
2024/01/25 06:09:26;;;;;;;21.88;2.92;;;;;;;-141.50;100.00;63355.56;4959361;28;20082;-77
2024/01/25 06:11:53;;;;;;;23.67;2.78;;;;;;;-141.50;100.00;63355.56;4960885;28;20059;-78
2024/01/25 06:14:20;;;;;;;23.55;3.10;;;;;;;-141.50;100.00;63355.56;4970639;28;20055;-76
2024/01/25 06:16:47;;;;;;;18.60;2.55;;;;;;;-141.50;100.00;63355.56;5036691;28;20079;-77
2024/01/25 06:19:14;;;;;;;23.60;3.65;;;;;;;-141.50;100.00;63355.56;5035628;28;20080;-77
2024/01/25 06:21:41;;;;;;;17.20;2.13;;;;;;;-141.50;100.00;63355.56;4979502;28;20055;-76
2024/01/25 06:24:07;;;;;;;24.33;3.15;;;;;;;-141.50;100.00;63355.56;4950477;28;20674;-76
2024/01/25 06:26:34;;;;;;;14.43;2.50;;;;;;;-141.50;100.00;63355.56;4964889;28;20057;-78
2024/01/25 06:29:01;;;;;;;23.33;2.65;;;;;;;-141.50;100.00;63355.56;4961277;28;20063;-76
2024/01/25 06:31:28;;;;;;;19.75;2.83;;;;;;;-141.50;100.00;63355.56;4990414;28;20097;-76
2024/01/25 06:33:54;;;;;;;19.52;3.13;;;;;;;-141.50;100.00;63355.56;4957802;28;20130;-76
2024/01/25 06:36:22;;;;;;;16.40;2.60;;;;;;;-141.50;100.00;63355.56;4969104;28;20078;-75
2024/01/25 06:38:49;;;;;;;13.32;2.03;;;;;;;-141.50;100.00;63355.56;4951309;28;20054;-76
2024/01/25 06:41:17;;;;;;;12.50;2.03;;;;;;;-141.50;100.00;63355.56;4950945;28;20067;-76
2024/01/25 06:43:43;;;;;;;17.25;2.90;;;;;;;-141.50;100.00;63355.56;4969303;28;20053;-77
2024/01/25 06:46:10;;;;;;;20.75;2.45;;;;;;;-141.50;100.00;63355.56;4996137;28;20551;-76
2024/01/25 06:48:37;;;;;;;17.95;3.13;;;;;;;-141.50;100.00;63355.56;4984484;28;20055;-77
2024/01/25 06:51:04;;;;;;;25.90;2.63;;;;;;;-141.50;100.00;63355.56;4957053;28;20059;-76
2024/01/25 06:53:31;;;;;;;17.88;2.75;;;;;;;-141.50;100.00;63355.56;4972268;28;20198;-75
2024/01/25 06:55:58;;;;;;;19.45;2.88;;;;;;;-141.50;100.00;63355.56;5037927;28;20079;-76
2024/01/25 06:58:25;;;;;;;22.63;2.83;;;;;;;-141.50;100.00;63355.56;4995987;28;20054;-76
2024/01/25 07:00:52;;;;;;;14.90;2.10;;;;;;;-141.50;100.00;63355.56;4955091;28;20593;-76
2024/01/25 07:03:20;;;;;;;22.20;3.70;;;;;;;-141.50;100.00;63355.56;4941787;28;20074;-77
2024/01/25 07:05:47;;;;;;;17.13;2.22;;;;;;;-141.50;100.00;63355.56;4956416;28;20138;-76
2024/01/25 07:08:14;;;;;;;13.50;2.05;;;;;;;-141.50;100.00;63355.56;4946769;28;20062;-76
2024/01/25 07:10:42;;;;;;;15.63;2.45;;;;;;;-141.50;100.00;63355.56;4960278;28;20106;-76
2024/01/25 07:13:09;;;;;;;12.15;2.70;;;;;;;-141.50;100.00;63355.56;4966857;28;20074;-76
2024/01/25 07:15:36;;;;;;;24.48;2.67;;;;;;;-141.50;100.00;63355.56;4947464;28;20066;-76
2024/01/25 07:18:03;;;;;;;13.73;2.25;;;;;;;-141.50;100.00;63355.56;4952852;28;20063;-76
2024/01/25 07:20:30;;;;;;;14.85;2.17;;;;;;;-141.50;100.00;63355.56;4982112;28;20145;-76
2024/01/25 07:22:57;;;;;;;20.55;2.88;;;;;;;-141.50;100.00;63355.56;4955769;28;20517;-76
2024/01/25 07:25:24;;;;;;;28.35;2.63;;;;;;;-141.50;100.00;63355.56;4945846;28;20499;-77
2024/01/25 07:27:51;;;;;;;19.20;2.70;;;;;;;-141.50;100.00;63355.56;4974355;28;20060;-76
2024/01/25 07:30:17;;;;;;;17.63;2.10;;;;;;;-141.50;100.00;63355.56;4960752;28;20065;-76
2024/01/25 07:32:45;;;;;;;16.98;2.10;;;;;;;-141.50;100.00;63355.56;4955513;28;20600;-77
2024/01/25 07:35:12;;;;;;;27.55;3.05;;;;;;;-141.50;100.00;63355.56;4984385;28;20052;-76
2024/01/25 07:37:42;;;;;;;20.92;2.10;;;;;;;-141.50;100.00;63355.56;4949116;28;20074;-76
2024/01/25 07:40:09;;;;;;;17.77;1.95;;;;;;;-141.50;100.00;63355.56;4980147;28;20111;-77
2024/01/25 07:42:36;;;;;;;10.30;1.38;;;;;;;-141.50;100.00;63355.56;4949768;28;20438;-77
2024/01/25 07:45:03;;;;;;;18.20;2.38;;;;;;;-141.50;100.00;63355.56;4953849;28;20058;-76
2024/01/25 07:47:29;;;;;;;12.45;1.90;;;;;;;-141.50;100.00;63355.56;4964462;28;20050;-77
2024/01/25 07:49:57;;;;;;;14.00;2.05;;;;;;;-141.50;100.00;63355.56;5001631;28;20152;-77
2024/01/25 07:52:24;;;;;;;12.75;1.80;;;;;;;-141.50;100.00;63355.56;4945405;28;20417;-77
2024/01/25 07:54:53;;;;;;;9.30;1.92;;;;;;;-141.50;100.00;63355.56;4946926;28;20190;-77
2024/01/25 07:57:20;;;;;;;17.23;2.28;;;;;;;-141.50;100.00;63355.56;4946597;28;20055;-77
2024/01/25 07:59:47;;;;;;;17.67;2.08;;;;;;;-141.50;100.00;63355.56;4989740;28;20168;-77
2024/01/25 08:02:14;;;;;;;11.02;1.83;;;;;;;-141.50;100.00;63355.56;4980511;28;20050;-76
2024/01/25 08:04:46;;;;;;;16.48;2.03;;;;;;;-141.50;100.00;63355.56;4972472;28;20086;-77
2024/01/25 08:07:13;;;;;;;15.68;2.13;;;;;;;-141.50;100.00;63355.56;4946180;28;20069;-77
2024/01/25 08:09:41;;;;;;;18.15;2.28;;;;;;;-141.50;100.00;63355.56;4951517;28;20062;-77
2024/01/25 08:12:07;;;;;;;9.48;2.40;;;;;;;-141.50;100.00;63355.56;4948108;28;20079;-77
2024/01/25 08:14:34;;;;;;;10.80;1.73;;;;;;;-141.50;100.00;63355.56;4945961;28;20063;-77
2024/01/25 08:17:01;;;;;;;13.55;2.00;;;;;;;-141.50;100.00;63355.56;4950008;28;20150;-77
2024/01/25 08:19:27;;;;;;;14.80;1.88;;;;;;;-141.50;100.00;63355.56;4951276;28;20055;-77
2024/01/25 08:21:54;;;;;;;14.88;2.22;;;;;;;-141.50;100.00;63355.56;4947512;28;20059;-77
2024/01/25 08:24:21;;;;;;;13.65;2.10;;;;;;;-141.50;100.00;63355.56;4963738;28;20058;-77
2024/01/25 08:26:48;;;;;;;12.98;1.67;;;;;;;-141.50;100.00;63355.56;4949079;28;20059;-76
2024/01/25 08:29:14;;;;;;;19.75;1.98;;;;;;;-141.50;100.00;63355.56;4948177;28;20069;-77
2024/01/25 08:31:41;;;;;;;13.98;1.77;;;;;;;-141.50;100.00;63355.56;4961279;28;20165;-76
2024/01/25 08:34:08;;;;;;;12.73;1.95;;;;;;;-141.50;100.00;63355.56;4979685;28;20053;-76
2024/01/25 08:36:35;;;;;;;15.02;1.83;;;;;;;-141.50;100.00;63355.56;4947888;28;20066;-76
2024/01/25 08:39:03;;;;;;;12.43;1.63;;;;;;;-141.50;100.00;63355.56;4955112;28;20062;-76
2024/01/25 08:41:30;;;;;;;13.35;2.70;;;;;;;-141.50;100.00;63355.56;4954611;28;20055;-75
2024/01/25 08:43:59;;;;;;;15.55;1.90;;;;;;;-141.50;100.00;63355.56;4977176;28;20050;-75
2024/01/25 08:46:25;;;;;;;18.20;1.95;;;;;;;-141.50;100.00;63355.56;4949331;28;20536;-75
2024/01/25 08:48:52;;;;;;;13.52;1.70;;;;;;;-141.50;100.00;63355.56;4971822;28;20061;-75
2024/01/25 08:51:19;;;;;;;11.48;2.00;;;;;;;-141.50;100.00;63355.56;4942430;28;20063;-75
2024/01/25 08:53:46;;;;;;;15.75;1.60;;;;;;;-141.50;100.00;63355.56;4986702;28;20058;-76
2024/01/25 08:56:13;;;;;;;22.75;2.15;;;;;;;-141.50;100.00;63355.56;4957516;28;20066;-75
2024/01/25 08:58:39;;;;;;;18.38;1.95;;;;;;;-141.50;100.00;63355.56;4975892;28;20066;-76
2024/01/25 09:01:06;;;;;;;14.82;2.30;;;;;;;-141.50;100.00;63355.56;4981579;28;20063;-76
2024/01/25 09:03:33;;;;;;;13.98;1.85;;;;;;;-141.50;100.00;63355.56;4955855;28;20074;-75
2024/01/25 09:06:05;;;;;;;13.50;1.63;;;;;;;-141.50;100.00;63355.56;4948927;28;20058;-76
2024/01/25 09:08:32;;;;;;;12.05;1.80;;;;;;;-141.50;100.00;63355.56;5017387;28;20054;-76
2024/01/25 09:10:59;;;;;;;11.63;1.63;;;;;;;-141.50;100.00;63355.56;4949547;28;20159;-76
2024/01/25 09:13:26;;;;;;;12.00;2.05;;;;;;;-141.50;100.00;63355.56;4998261;28;20523;-76
2024/01/25 09:15:53;;;;;;;12.68;1.73;;;;;;;-141.50;100.00;63355.56;4995411;28;20507;-76
2024/01/25 09:18:19;;;;;;;18.30;1.88;;;;;;;-141.50;100.00;63355.56;4962703;28;20806;-76
2024/01/25 09:20:48;;;;;;;14.85;2.13;;;;;;;-141.50;100.00;63355.56;4985144;28;20359;-76
2024/01/25 09:23:16;;;;;;;21.83;1.67;;;;;;;-141.50;100.00;63355.56;4955656;28;20054;-76
2024/01/25 09:25:44;;;;;;;17.45;1.77;;;;;;;-141.50;100.00;63355.56;4954499;28;20067;-76
2024/01/25 09:28:11;;;;;;;15.77;2.00;;;;;;;-141.50;100.00;63355.56;4965403;28;20085;-76
2024/01/25 09:30:39;;;;;;;15.02;2.20;;;;;;;-141.50;100.00;63355.56;4978208;28;20063;-76
2024/01/25 09:33:06;;;;;;;16.00;1.80;;;;;;;-141.50;100.00;63355.56;4957520;28;20063;-76
2024/01/25 09:35:34;;;;;;;13.00;1.90;;;;;;;-141.50;100.00;63355.56;4992391;28;20100;-76
2024/01/25 09:38:03;;;;;;;16.25;1.75;;;;;;;-141.50;100.00;63355.56;4956983;28;20071;-78
2024/01/25 09:40:31;;;;;;;13.77;1.73;;;;;;;-141.50;100.00;63355.56;4960260;28;20042;-78
2024/01/25 09:42:59;;;;;;;9.52;1.67;;;;;;;-141.50;100.00;63355.56;4980898;28;20056;-75
2024/01/25 09:45:26;;;;;;;18.52;2.20;;;;;;;-141.50;100.00;63355.56;4999382;28;20047;-77
2024/01/25 09:47:53;;;;;;;8.13;1.20;;;;;;;-141.50;100.00;63355.56;4980438;28;20050;-77
2024/01/25 09:50:20;;;;;;;10.18;1.52;;;;;;;-141.50;100.00;63355.56;4956453;28;20075;-77
2024/01/25 09:52:57;;;;;;;12.88;2.00;;;;;;;-141.50;100.00;63355.56;4971774;28;20495;-77
2024/01/25 09:55:27;;;;;;;21.35;1.98;;;;;;;-141.50;100.00;63355.56;4982805;28;20055;-77
2024/01/25 09:57:57;;;;;;;14.57;2.08;;;;;;;-141.50;100.00;63355.56;4971957;28;20152;-77
2024/01/25 10:00:24;;;;;;;15.02;2.15;;;;;;;-141.50;100.00;63355.56;4975490;28;20061;-77
2024/01/25 10:02:51;;;;;;;10.77;1.73;;;;;;;-141.50;100.00;63355.56;4963745;28;20059;-77
2024/01/25 10:05:18;;;;;;;11.45;1.55;;;;;;;-141.50;100.00;63355.56;4958021;28;20051;-77
2024/01/25 10:07:46;;;;;;;15.80;1.80;;;;;;;-141.50;100.00;63355.56;5046613;28;20108;-77
2024/01/25 10:10:13;;;;;;;10.35;1.77;;;;;;;-141.50;100.00;63355.56;4993546;28;20060;-77
2024/01/25 10:12:42;;;;;;;11.77;1.60;;;;;;;-141.50;100.00;63355.56;4989399;28;20146;-77
2024/01/25 10:15:10;;;;;;;8.07;1.50;;;;;;;-141.50;100.00;63355.56;4962073;28;20146;-76
2024/01/25 10:17:36;;;;;;;10.63;1.67;;;;;;;-141.50;100.00;63355.56;4955712;28;20071;-76
2024/01/25 10:20:25;;;;;;;12.82;2.10;;;;;;;-141.50;100.00;63355.56;4967216;28;20076;-76
2024/01/25 10:23:16;;;;;;;15.93;1.60;;;;;;;-141.50;100.00;63355.56;4979956;28;20320;-76
2024/01/25 10:25:42;;;;;;;9.73;1.63;;;;;;;-141.50;100.00;63355.56;4990044;28;20084;-75
2024/01/25 10:28:09;;;;;;;8.55;1.45;;;;;;;-141.50;100.00;63355.56;4961716;28;20533;-75
2024/01/25 10:30:36;;;;;;;10.85;1.42;;;;;;;-141.50;100.00;63355.56;4977859;28;20035;-75
2024/01/25 10:33:06;;;;;;;9.68;1.42;;;;;;;-141.50;100.00;63355.56;4966740;28;20110;-75
2024/01/25 10:35:35;;;;;;;8.32;1.45;;;;;;;-141.50;100.00;63355.56;4956620;28;20050;-78
2024/01/25 10:38:03;;;;;;;11.77;1.90;;;;;;;-141.50;100.00;63355.56;5002582;28;20065;-76
2024/01/25 10:40:30;;;;;;;11.90;1.58;;;;;;;-141.50;100.00;63355.56;4982446;28;20155;-76
2024/01/25 10:42:57;;;;;;;13.88;1.50;;;;;;;-141.50;100.00;63355.56;4958634;28;20190;-76
2024/01/25 10:45:24;;;;;;;10.90;1.75;;;;;;;-141.50;100.00;63355.56;4958416;28;20059;-77
2024/01/25 10:47:51;;;;;;;7.90;1.20;;;;;;;-141.50;100.00;63355.56;4969715;28;20549;-77
2024/01/25 10:50:18;;;;;;;9.07;1.30;;;;;;;-141.50;100.00;63355.56;4957985;28;20570;-75
2024/01/25 10:52:46;;;;;;;12.38;2.20;;;;;;;-141.50;100.00;63355.56;4965922;28;20055;-78
2024/01/25 10:55:14;;;;;;;12.07;1.33;;;;;;;-141.50;100.00;63355.56;4953874;28;20063;-76
2024/01/25 10:57:45;;;;;;;10.00;1.48;;;;;;;-141.50;100.00;63355.56;5030296;28;20059;-76
2024/01/25 11:00:14;;;;;;;7.75;1.30;;;;;;;-141.50;100.00;63355.56;4965505;28;20063;-75
2024/01/25 11:02:42;;;;;;;11.93;1.25;;;;;;;-141.50;100.00;63355.56;4999423;28;20043;-76